Skip Navigation Links
NOAA logo - Click to go to the NOAA homepage
NOAA's National Weather Service
Alaska Aviation Weather Unit
  NWS logo - Click to go to the NWS homepage
Left Navbar Graphic     12 AKDT = 20 GMT

   
NOAA is celebrating 200 years of science, service, and stewardship. Visit the NOAA 200th celebration Web site to learn more.
USA.gov is the U.S. Government's official Web portal to all Federal, state and local government Web resources and services.
Facebook
NWS on Facebook

Important Change Regarding the AAWU Web Presence

 

Over the last several months, the AAWU has been working to navigate its webpages to a nationally supported server. Security, as well as other needs, have necessitated the change.  We have been given an extension for the site changeover while we diligently work at addressing feedback received. As of July 14, 2017, aawu.arh.noaa.gov will be discontinued. The new AAWU web address is weather.gov/aawu. It is now live and will run in-parallel with the old site until it is discontinued on July 14, 2017. Please continue to send any feedback or questions regarding the new webpages to nws.ar.aawu.webauthors@noaa.gov.  Thank you for your patience during this time of transition.
AAWU Home :: Display TAF Add Bookmark
TAF PATK 251720Z 2518/2618 VRB03KT P6SM VCSH OVC012
     FM260400 VRB03KT P6SM SCT015 OVC030=
PATK 251419Z AUTO 00000KT 10SM OVC014 14/11 A3000=

METAR PATK 251453Z AUTO 00000KT 10SM OVC012 14/12 A3000 RMK AO2 SLP161
     T01390117 55002 TSNO=

METAR PATK 251553Z AUTO 00000KT 10SM OVC011 14/12 A3000 RMK AO2
 SLP159 T01390117 TSNO=

METAR PATK 251653Z 00000KT 10SM -RA BKN010 OVC013 14/12 A2999 RMK
 AO2 RAB03E35B51 SLP158 P0000 T01390122=

PATK 251735Z 00000KT 8SM -RA SCT009 SCT014 OVC025 13/12 A2999=

SPECI PATK 251735Z 00000KT 8SM -RA SCT009 SCT014 OVC025 13/12 A2999
 RMK AO2 P0001 T01330122=

METAR PATK 251753Z 00000KT 9SM -RA SCT009 BKN024 OVC029 14/12 A2999 RMK
     AO2 SLP158 P0001 60001 T01390122 10144 20133 56003=

PATK 251810Z 15004KT 10SM FEW010 SCT018 OVC032 13/12 A2999=

SPECI PATK 251810Z 15004KT 10SM FEW010 SCT018 OVC032 13/12 A2999 RMK AO2
     RAE01 P0000 T01330117=

PATK 251826Z 15003KT 10SM FEW012 BKN024 OVC035 14/12 A2999=

PATK 251826Z 15003KT 10SM FEW012 BKN024 OVC035 14/12 A2999 RMK AO2
     RAE01 P0000 T01390122=

METAR PATK 251853Z 17006KT 10SM OVC016 14/12 A2999 RMK AO2 RAE01 SLP156
     P0000 T01390117=

METAR PATK 251953Z 24003KT 4SM -RA BR BKN010 OVC014 13/12 A2998 RMK AO2
     RAB49 CIG 008V013 SLP154 P0000 T01330117=

PATK 252016Z 21004KT 4SM -RA BR SCT008 OVC012 13/12 A2998=

PATK 252016Z 21004KT 4SM -RA BR SCT008 OVC012 13/12 A2998 RMK AO2
     P0000 T01330117=


NOAA's National Weather Service
Alaska Aviation Weather Unit
6930 Sand Lake Road
Anchorage, AK 99502-1845
Disclaimer
Credits
Glossary
Privacy Policy
About Us
Career Opportunities
Contact AAWU Internet Services Site last modified: April, 17th 2012